createdAt,value
2019-01-15T00:01:29.061Z,100962.81
2019-01-15T00:03:57.690Z,100962.33
2019-01-15T00:06:26.347Z,100952.45
2019-01-15T00:08:55.042Z,100950.25
2019-01-15T00:11:23.693Z,100948.34
2019-01-15T00:13:52.294Z,100947.66
2019-01-15T00:16:21.011Z,100943.85
2019-01-15T00:18:49.656Z,100944.18
2019-01-15T00:21:18.293Z,100949.36
2019-01-15T00:23:46.891Z,100955.70
2019-01-15T00:26:15.694Z,100953.94
2019-01-15T00:28:44.310Z,100963.73
2019-01-15T00:31:12.948Z,100961.73
2019-01-15T00:33:41.606Z,100977.78
2019-01-15T00:36:10.311Z,100975.25
2019-01-15T00:38:38.975Z,100967.47
2019-01-15T00:41:07.633Z,100975.95
2019-01-15T00:43:36.219Z,100977.48
2019-01-15T00:46:04.928Z,100979.30
2019-01-15T00:48:33.512Z,100982.00
2019-01-15T00:51:02.140Z,100983.06
2019-01-15T00:53:30.769Z,100990.66
2019-01-15T00:55:59.389Z,100994.83
2019-01-15T00:58:28.034Z,100993.28
2019-01-15T01:00:56.798Z,100990.16
2019-01-15T01:03:25.501Z,100995.17
2019-01-15T01:05:54.124Z,100996.20
2019-01-15T01:08:22.745Z,100993.08
2019-01-15T01:11:10.619Z,101007.84
2019-01-15T01:13:39.237Z,101005.69
2019-01-15T01:16:07.919Z,101008.95
2019-01-15T01:18:36.562Z,101010.56
2019-01-15T01:21:05.419Z,101021.08
2019-01-15T01:23:34.102Z,101020.79
2019-01-15T01:26:02.887Z,101018.36
2019-01-15T01:28:31.511Z,101019.28
2019-01-15T01:31:00.307Z,101022.06
2019-01-15T01:33:28.979Z,101022.13
2019-01-15T01:35:57.610Z,101018.08
2019-01-15T01:38:26.236Z,101016.16
2019-01-15T01:40:54.833Z,101016.69
2019-01-15T01:43:23.501Z,101015.39
2019-01-15T01:45:52.108Z,101013.16
2019-01-15T01:48:20.745Z,101017.41
2019-01-15T01:50:49.354Z,101015.88
2019-01-15T01:53:18.065Z,101018.08
2019-01-15T01:55:46.786Z,101022.20
2019-01-15T01:58:15.409Z,101020.33
2019-01-15T02:00:44.019Z,101022.97
2019-01-15T02:03:12.608Z,101024.52
2019-01-15T02:05:41.209Z,101026.32
2019-01-15T02:08:09.952Z,101032.09
2019-01-15T02:10:38.638Z,101032.02
2019-01-15T02:13:07.298Z,101037.24
2019-01-15T02:15:35.896Z,101038.93
2019-01-15T02:18:23.726Z,101042.48
2019-01-15T02:20:52.331Z,101045.47
2019-01-15T02:23:20.972Z,101037.17
2019-01-15T02:25:51.700Z,101036.81
2019-01-15T02:28:20.358Z,101037.22
2019-01-15T02:30:49.072Z,101038.98
2019-01-15T02:33:17.728Z,101036.81
2019-01-15T02:35:46.420Z,101033.87
2019-01-15T02:38:15.044Z,101033.95
2019-01-15T02:40:43.651Z,101032.22
2019-01-15T02:43:12.280Z,101042.17
2019-01-15T02:45:40.866Z,101041.03
2019-01-15T02:48:09.578Z,101045.81
2019-01-15T02:50:38.187Z,101042.73
2019-01-15T02:53:06.803Z,101037.51
2019-01-15T02:55:35.410Z,101039.38
2019-01-15T02:58:04.095Z,101040.64
2019-01-15T03:00:32.735Z,101045.81
2019-01-15T03:03:01.423Z,101046.50
2019-01-15T03:05:30.123Z,101043.36
2019-01-15T03:07:58.700Z,101045.73
2019-01-15T03:10:27.356Z,101048.41
2019-01-15T03:12:56.762Z,101053.13
2019-01-15T03:15:26.308Z,101043.31
2019-01-15T03:17:54.999Z,101044.16
2019-01-15T03:20:23.605Z,101037.75
2019-01-15T03:22:52.294Z,101042.25
2019-01-15T03:25:20.984Z,101033.98
2019-01-15T03:27:49.594Z,101030.82
2019-01-15T03:30:23.278Z,101024.50
2019-01-15T03:35:36.559Z,101010.57
2019-01-15T03:38:05.222Z,101011.05
2019-01-15T03:40:33.821Z,101008.62
2019-01-15T03:43:03.805Z,101007.15
2019-01-15T03:45:32.763Z,101010.20
2019-01-15T03:48:01.468Z,101001.37
2019-01-15T03:50:30.038Z,101003.81
2019-01-15T03:55:46.470Z,101005.49
2019-01-15T03:58:15.059Z,101014.69
2019-01-15T04:00:43.681Z,101013.69
2019-01-15T04:03:12.365Z,101010.64
2019-01-15T04:05:41.016Z,101005.42
2019-01-15T04:08:09.723Z,100995.03
2019-01-15T04:10:38.401Z,100991.20
2019-01-15T04:13:11.485Z,100989.73
2019-01-15T04:15:37.367Z,100973.17
2019-01-15T04:18:06.030Z,100973.65
2019-01-15T04:20:34.623Z,100970.78
2019-01-15T04:23:03.239Z,100959.43
2019-01-15T04:25:31.953Z,100957.09
2019-01-15T04:28:40.414Z,100962.98
2019-01-15T04:31:09.058Z,100957.56
2019-01-15T04:33:37.668Z,100960.13
2019-01-15T04:36:06.286Z,100960.34
2019-01-15T04:38:34.893Z,100963.91
2019-01-15T04:41:03.496Z,100957.50
2019-01-15T04:43:32.122Z,100955.27
2019-01-15T04:46:00.868Z,100948.59
2019-01-15T04:48:29.541Z,100950.61
2019-01-15T04:50:58.142Z,100952.01
2019-01-15T04:53:26.754Z,100951.64
2019-01-15T04:55:55.381Z,100959.80
2019-01-15T04:58:24.035Z,100960.97
2019-01-15T05:00:52.713Z,100971.33
2019-01-15T05:03:21.471Z,100973.09
2019-01-15T05:05:50.097Z,100968.55
2019-01-15T05:08:18.717Z,100972.36
2019-01-15T05:10:47.331Z,100974.38
2019-01-15T05:13:16.061Z,100973.83
2019-01-15T05:15:44.739Z,100974.75
2019-01-15T05:18:13.352Z,100975.73
2019-01-15T05:20:41.970Z,100977.32
2019-01-15T05:23:10.665Z,100966.63
2019-01-15T05:25:39.174Z,100961.59
2019-01-15T05:28:07.802Z,100953.95
2019-01-15T05:30:36.423Z,100957.08
2019-01-15T05:33:05.231Z,100955.83
2019-01-15T05:35:33.910Z,100957.26
2019-01-15T05:38:02.597Z,100959.50
2019-01-15T05:40:31.258Z,100959.84
2019-01-15T05:42:59.882Z,100957.89
2019-01-15T05:51:19.842Z,100967.54
2019-01-15T05:53:48.460Z,100967.30
2019-01-15T05:56:17.076Z,100977.95
2019-01-15T05:58:45.758Z,100976.92
2019-01-15T06:01:14.431Z,100981.88
2019-01-15T06:03:43.084Z,100979.08
2019-01-15T06:06:11.825Z,100976.52
2019-01-15T06:08:40.460Z,100980.67
2019-01-15T06:11:09.101Z,100985.41
2019-01-15T06:13:42.661Z,100990.44
2019-01-15T06:16:08.178Z,100982.69
2019-01-15T06:18:36.801Z,100981.36
2019-01-15T06:21:05.529Z,100955.91
2019-01-15T06:23:34.187Z,100954.06
2019-01-15T06:26:02.948Z,100947.38
2019-01-15T06:28:31.685Z,100954.98
2019-01-15T06:31:00.447Z,100947.89
2019-01-15T06:33:29.172Z,100953.66
2019-01-15T06:35:57.789Z,100954.51
2019-01-15T06:38:26.389Z,100962.08
2019-01-15T06:40:55.087Z,100949.44
2019-01-15T06:43:23.706Z,100944.96
2019-01-15T06:45:52.421Z,100951.20
2019-01-15T06:48:21.109Z,100943.71
2019-01-15T06:50:49.848Z,100953.04
2019-01-15T06:53:18.522Z,100955.25
2019-01-15T06:55:47.296Z,100956.34
2019-01-15T06:58:16.039Z,100958.66
2019-01-15T07:00:44.651Z,100969.31
2019-01-15T07:03:13.343Z,100965.64
2019-01-15T07:05:41.976Z,100967.22
2019-01-15T07:08:10.763Z,100962.15
2019-01-15T07:10:39.889Z,100964.20
2019-01-15T07:13:08.524Z,100967.69
2019-01-15T07:15:37.213Z,100971.41
2019-01-15T07:18:05.888Z,100970.08
2019-01-15T07:20:34.495Z,100967.32
2019-01-15T07:23:03.295Z,100971.19
2019-01-15T07:25:31.948Z,100966.12
2019-01-15T07:28:01.364Z,100971.33
2019-01-15T07:30:53.814Z,100969.17
2019-01-15T07:33:27.405Z,100964.45
2019-01-15T07:35:56.143Z,100974.99
2019-01-15T07:38:24.780Z,100986.53
2019-01-15T07:40:53.466Z,100990.22
2019-01-15T07:43:22.262Z,100995.80
2019-01-15T07:45:51.049Z,100995.14
2019-01-15T07:48:20.104Z,100993.05
2019-01-15T07:50:48.813Z,100988.75
2019-01-15T07:53:17.526Z,100993.41
2019-01-15T07:55:46.125Z,100992.38
2019-01-15T07:58:14.740Z,100986.10
2019-01-15T08:00:43.422Z,101000.50
2019-01-15T08:03:12.093Z,100996.13
2019-01-15T08:05:41.601Z,100992.19
2019-01-15T08:08:10.562Z,100990.50
2019-01-15T08:10:39.241Z,100997.62
2019-01-15T08:13:07.855Z,100997.70
2019-01-15T08:15:36.579Z,100986.05
2019-01-15T08:21:11.601Z,100982.09
2019-01-15T08:23:40.477Z,100988.69
2019-01-15T08:26:09.340Z,100987.11
2019-01-15T08:28:38.116Z,100991.61
2019-01-15T08:31:06.959Z,100990.16
2019-01-15T08:33:35.855Z,100995.80
2019-01-15T08:36:04.695Z,101001.35
2019-01-15T08:38:35.988Z,101000.58
2019-01-15T08:41:04.875Z,100993.30
2019-01-15T08:43:35.734Z,100984.96
2019-01-15T08:46:04.578Z,100990.47
2019-01-15T08:56:22.040Z,101000.28
2019-01-15T09:01:52.134Z,101022.80
2019-01-15T09:04:20.867Z,101007.23
2019-01-15T09:06:49.464Z,100997.04
2019-01-15T09:09:18.090Z,100999.95
2019-01-15T09:11:46.733Z,101012.25
2019-01-15T09:14:15.437Z,101017.66
2019-01-15T09:16:44.051Z,101008.73
2019-01-15T09:19:12.736Z,100996.53
2019-01-15T09:21:41.427Z,101000.23
2019-01-15T09:24:10.550Z,101002.38
2019-01-15T09:26:39.225Z,100997.54
2019-01-15T09:29:08.148Z,100995.75
2019-01-15T09:31:36.828Z,100987.84
2019-01-15T09:34:05.599Z,100996.11
2019-01-15T09:36:34.295Z,100985.14
2019-01-15T09:39:21.905Z,100990.39
2019-01-15T09:41:50.583Z,100980.58
2019-01-15T09:44:19.280Z,100979.20
2019-01-15T09:46:47.944Z,100977.80
2019-01-15T09:49:16.623Z,100976.84
2019-01-15T09:51:52.016Z,100976.42
2019-01-15T09:54:20.792Z,100971.00
2019-01-15T09:56:49.442Z,100960.67
2019-01-15T09:59:18.053Z,100970.64
2019-01-15T10:01:46.677Z,100978.28
2019-01-15T10:04:15.274Z,100972.61
2019-01-15T10:06:43.919Z,100962.28
2019-01-15T10:09:12.613Z,100971.73
2019-01-15T10:11:41.327Z,100986.64
2019-01-15T10:14:10.009Z,100974.10
2019-01-15T10:16:38.725Z,100965.05
2019-01-15T10:19:07.341Z,100965.50
2019-01-15T10:21:35.998Z,100953.96
2019-01-15T10:24:04.847Z,100952.27
2019-01-15T10:26:33.485Z,100952.72
2019-01-15T10:29:02.172Z,100950.83
2019-01-15T10:32:09.384Z,100943.91
2019-01-15T10:37:39.546Z,100932.16
2019-01-15T10:40:08.353Z,100932.94
2019-01-15T10:42:36.992Z,100935.66
2019-01-15T10:45:06.887Z,100928.57
2019-01-15T10:47:35.502Z,100925.11
2019-01-15T10:50:05.190Z,100929.09
2019-01-15T10:52:33.886Z,100926.89
2019-01-15T10:55:02.524Z,100923.61
2019-01-15T10:57:31.212Z,100926.27
2019-01-15T10:59:59.887Z,100922.83
2019-01-15T11:02:28.524Z,100922.08
2019-01-15T11:04:57.147Z,100917.93
2019-01-15T11:07:25.830Z,100905.44
2019-01-15T11:09:54.613Z,100913.27
2019-01-15T11:12:23.333Z,100903.62
2019-01-15T11:17:41.592Z,100898.88
2019-01-15T11:23:25.610Z,100904.31
2019-01-15T11:25:54.359Z,100904.92
2019-01-15T11:28:22.997Z,100893.59
2019-01-15T11:30:51.684Z,100895.27
2019-01-15T11:33:20.390Z,100896.05
2019-01-15T11:35:49.062Z,100888.13
2019-01-15T11:38:17.727Z,100871.87
2019-01-15T11:40:46.420Z,100879.06
2019-01-15T11:43:15.034Z,100871.89
2019-01-15T11:45:43.790Z,100859.97
2019-01-15T11:48:12.400Z,100856.34
2019-01-15T11:50:41.045Z,100861.36
2019-01-15T11:53:09.721Z,100852.17
2019-01-15T11:55:38.438Z,100846.38
2019-01-15T11:58:07.141Z,100842.95
2019-01-15T12:00:54.742Z,100842.98
2019-01-15T12:03:42.449Z,100841.14
2019-01-15T12:06:24.603Z,100837.98
2019-01-15T12:09:04.345Z,100837.70
2019-01-15T12:11:51.977Z,100839.70
2019-01-15T12:14:39.682Z,100829.87
2019-01-15T12:17:27.367Z,100836.23
2019-01-15T12:20:14.994Z,100840.50
2019-01-15T12:23:02.708Z,100838.38
2019-01-15T12:25:50.379Z,100834.36
2019-01-15T12:28:38.100Z,100838.86
2019-01-15T12:31:25.796Z,100820.45
2019-01-15T12:34:13.445Z,100818.78
2019-01-15T12:37:01.131Z,100821.95
2019-01-15T12:39:48.831Z,100824.95
2019-01-15T12:42:36.469Z,100824.12
2019-01-15T12:45:27.505Z,100824.95
2019-01-15T12:48:15.249Z,100823.16
2019-01-15T12:51:02.878Z,100820.31
2019-01-15T12:53:50.595Z,100817.33
2019-01-15T12:56:38.340Z,100816.50
2019-01-15T12:59:17.013Z,100815.34
2019-01-15T13:04:12.228Z,100801.86
2019-01-15T13:06:59.988Z,100813.67
2019-01-15T13:09:47.601Z,100801.86
2019-01-15T13:12:35.277Z,100805.86
2019-01-15T13:15:26.152Z,100800.88
2019-01-15T13:18:12.733Z,100792.55
2019-01-15T13:21:00.423Z,100796.54
2019-01-15T13:23:48.296Z,100793.20
2019-01-15T13:26:35.307Z,100794.37
2019-01-15T13:29:23.210Z,100789.87
2019-01-15T13:32:10.827Z,100793.55
2019-01-15T13:34:49.150Z,100791.06
2019-01-15T13:37:36.765Z,100785.23
2019-01-15T13:40:26.959Z,100783.39
2019-01-15T13:43:14.783Z,100773.42
2019-01-15T13:46:00.746Z,100769.25
2019-01-15T13:51:45.767Z,100766.77
2019-01-15T13:54:33.373Z,100767.27
2019-01-15T13:57:21.137Z,100773.74
2019-01-15T14:00:08.798Z,100769.75
2019-01-15T14:02:56.440Z,100783.06
2019-01-15T14:05:41.447Z,100772.24
2019-01-15T14:08:29.069Z,100770.59
2019-01-15T14:11:16.723Z,100780.08
2019-01-15T14:14:04.353Z,100769.61
2019-01-15T14:16:52.082Z,100767.26
2019-01-15T14:19:39.758Z,100763.27
2019-01-15T14:22:27.486Z,100763.94
2019-01-15T14:25:15.152Z,100758.79
2019-01-15T14:28:03.155Z,100762.29
2019-01-15T14:30:50.858Z,100766.10
2019-01-15T14:33:38.575Z,100764.59
2019-01-15T14:36:26.210Z,100761.63
2019-01-15T14:39:13.867Z,100759.63
2019-01-15T14:42:01.495Z,100767.09
2019-01-15T14:44:49.227Z,100759.77
2019-01-15T14:47:36.888Z,100758.30
2019-01-15T14:53:26.583Z,100762.27
2019-01-15T14:56:03.952Z,100757.46
2019-01-15T14:58:51.660Z,100752.80
2019-01-15T15:01:31.089Z,100752.81
2019-01-15T15:04:18.713Z,100752.63
2019-01-15T15:07:06.396Z,100757.78
2019-01-15T15:09:45.411Z,100757.61
2019-01-15T15:12:33.059Z,100756.30
2019-01-15T15:15:12.604Z,100763.45
2019-01-15T15:18:00.230Z,100761.59
2019-01-15T15:20:51.054Z,100763.45
2019-01-15T15:23:37.512Z,100762.13
2019-01-15T15:26:25.379Z,100762.78
2019-01-15T15:29:13.095Z,100764.92
2019-01-15T15:32:00.813Z,100758.94
2019-01-15T15:34:48.546Z,100758.94
2019-01-15T15:37:27.682Z,100761.59
2019-01-15T15:40:15.311Z,100763.94
2019-01-15T15:43:02.943Z,100764.92
2019-01-15T15:45:50.584Z,100761.77
2019-01-15T15:48:38.215Z,100764.92
2019-01-15T15:51:25.934Z,100765.09
2019-01-15T15:54:13.555Z,100764.43
2019-01-15T15:57:01.225Z,100757.61
2019-01-15T15:59:48.851Z,100752.63
2019-01-15T16:02:36.565Z,100758.62
2019-01-15T16:05:45.265Z,100758.27
2019-01-15T16:08:33.233Z,100765.75
2019-01-15T16:11:20.858Z,100759.45
2019-01-15T16:14:08.665Z,100758.94
2019-01-15T16:16:56.294Z,100759.59
2019-01-15T16:19:44.121Z,100760.11
2019-01-15T16:25:33.304Z,100757.94
2019-01-15T16:28:09.401Z,100761.59
2019-01-15T16:30:57.107Z,100757.59
2019-01-15T16:33:44.753Z,100753.78
2019-01-15T16:36:32.505Z,100756.08
2019-01-15T16:39:20.216Z,100754.73
2019-01-15T16:42:02.034Z,100758.05
2019-01-15T16:44:49.720Z,100752.56
2019-01-15T16:47:37.398Z,100752.91
2019-01-15T16:50:16.978Z,100751.09
2019-01-15T16:53:04.612Z,100749.43
2019-01-15T16:55:47.882Z,100743.97
2019-01-15T16:58:36.101Z,100759.10
2019-01-15T17:01:23.978Z,100754.44
2019-01-15T17:07:09.526Z,100756.59
2019-01-15T17:09:58.059Z,100757.75
2019-01-15T17:12:46.005Z,100757.41
2019-01-15T17:15:33.934Z,100761.56
2019-01-15T17:18:22.747Z,100760.41
2019-01-15T17:21:10.766Z,100757.19
2019-01-15T17:24:02.334Z,100759.72
2019-01-15T17:26:50.591Z,100754.22
2019-01-15T17:29:39.725Z,100743.78
2019-01-15T17:32:39.005Z,100756.22
2019-01-15T17:35:28.767Z,100747.73
2019-01-15T17:38:17.387Z,100744.91
2019-01-15T17:41:05.123Z,100746.06
2019-01-15T17:47:11.296Z,100747.38
2019-01-15T17:50:19.470Z,100743.88
2019-01-15T17:56:05.254Z,100740.72
2019-01-15T17:59:14.437Z,100738.37
2019-01-15T18:01:58.621Z,100740.01
2019-01-15T18:04:47.154Z,100735.69
2019-01-15T18:10:32.450Z,100735.86
2019-01-15T18:17:06.105Z,100738.36
2019-01-15T18:19:21.832Z,100748.45
2019-01-15T18:22:10.188Z,100740.83
2019-01-15T18:24:59.190Z,100743.33
2019-01-15T18:33:39.417Z,100746.15
2019-01-15T18:36:46.478Z,100744.02
2019-01-15T18:39:35.334Z,100754.15
2019-01-15T18:42:25.419Z,100745.02
2019-01-15T18:45:13.303Z,100751.08
2019-01-15T18:48:04.095Z,100747.03
2019-01-15T18:53:46.421Z,100748.84
2019-01-15T18:59:31.121Z,100752.00
2019-01-15T19:02:19.090Z,100749.53
2019-01-15T19:05:09.890Z,100750.34
2019-01-15T19:07:51.372Z,100748.34
2019-01-15T19:10:58.304Z,100752.48
2019-01-15T19:13:46.230Z,100755.48
2019-01-15T19:16:33.987Z,100754.31
2019-01-15T19:22:46.071Z,100753.48
2019-01-15T19:28:31.553Z,100752.44
2019-01-15T19:31:19.791Z,100757.30
2019-01-15T19:34:07.911Z,100757.12
2019-01-15T19:46:18.565Z,100756.41
2019-01-15T19:48:59.707Z,100753.22
2019-01-15T19:51:47.368Z,100754.71
2019-01-15T19:54:38.122Z,100746.61
2019-01-15T20:01:05.563Z,100754.15
2019-01-15T20:03:47.020Z,100752.44
2019-01-15T20:37:24.743Z,100745.60
2019-01-15T20:45:35.868Z,100755.11
2019-01-15T20:51:15.172Z,100754.34
2019-01-15T20:56:58.659Z,100758.83
2019-01-15T21:06:24.317Z,100747.04
2019-01-15T21:12:40.392Z,100756.65
2019-01-15T21:15:49.480Z,100752.84
2019-01-15T21:21:42.709Z,100741.06
2019-01-15T21:24:52.609Z,100739.07
2019-01-15T21:30:41.544Z,100741.67
2019-01-15T21:33:32.007Z,100738.67
2019-01-15T21:36:21.096Z,100740.00
2019-01-15T21:51:57.960Z,100744.16
2019-01-15T21:54:48.248Z,100741.78
2019-01-15T22:01:02.233Z,100737.53
2019-01-15T22:13:11.549Z,100730.66
2019-01-15T22:19:00.659Z,100733.05
2019-01-15T22:28:01.940Z,100720.50
2019-01-15T22:34:06.177Z,100723.52
2019-01-15T22:43:18.780Z,100716.09
2019-01-15T22:49:24.647Z,100704.12
2019-01-15T22:52:13.143Z,100707.74
2019-01-15T22:58:01.767Z,100708.75
2019-01-15T23:01:09.204Z,100708.11
2019-01-15T23:03:58.270Z,100708.08
2019-01-15T23:09:43.153Z,100691.44
2019-01-15T23:12:46.803Z,100689.09
2019-01-15T23:15:34.559Z,100690.94
2019-01-15T23:18:22.836Z,100686.97
2019-01-15T23:21:12.327Z,100682.13
2019-01-15T23:24:00.475Z,100675.81
2019-01-15T23:30:03.035Z,100678.00
2019-01-15T23:32:50.825Z,100680.83
2019-01-15T23:35:40.723Z,100686.94
2019-01-15T23:38:29.478Z,100679.66
2019-01-15T23:41:18.332Z,100677.56
2019-01-15T23:44:09.318Z,100681.16
2019-01-15T23:46:46.210Z,100672.70
2019-01-15T23:49:33.873Z,100671.37
2019-01-15T23:55:15.298Z,100659.20
2019-01-15T23:58:02.992Z,100663.58
